Terminal Aerodrome Forecast
Issued by NWS

Home | Current Version | Previous Version | Text Only | Print | Product List | Glossary On
Versions: 1 2 3 4 5 6 7 8 9 10 11 12 13 14
061
FTUS41 KLWX 302341
TAFMTN
TAF
KMTN 302341Z 0100/0124 08009KT P6SM SCT025 BKN150
     FM010600 12005KT 3SM BR SCT025 BKN200
     FM011000 17007KT P6SM SCT025 BKN100
     FM011300 19012KT P6SM SCT025 BKN060
     FM011900 18016G26KT P6SM SCT035 BKN060
      AMD NOT SKED 0102/0112=

USA.gov is the U.S. government's official web portal to all federal, state and local government web resources and services.